Aviation Digital Data Service (ADDS)

Output produced by METARs form (1908 UTC 25 June 2017)
found at http://www.aviationweather.gov/adds/metars/
 
SUCA 251900Z 01008KT CAVOK 25/18 Q1012
SUCA 251730Z 2518/2618 01015KT CAVOK TX26/2618Z TN15/2610Z 
     PROB40 
     TEMPO 2518/2600 01015G25KT
       
SUDU 251900Z 02016KT CAVOK 27/14 Q1015
SUDU 251730Z 2518/2618 01015KT CAVOK TX26/2618Z TN13/2610Z 
     PROB40 
     TEMPO 2518/2600 01015G25KT
       
SUMU 251900Z 03015KT CAVOK 27/16 Q1015 TEMPO 36015G25KT
SUMU 251730Z 2518/2618 36015KT CAVOK TX26/2618Z TN15/2610Z 
     PROB40 
     TEMPO 2518/2600 36015G25KT
       
SUAA 251900Z 03014KT CAVOK 27/16 Q1015
SUAA 251730Z 2518/2618 36015KT CAVOK TX26/2618Z TN15/2610Z 
     PROB40 
     TEMPO 2518/2600 36015G25KT
       
SULS 251900Z 04007KT 010V070 CAVOK 28/17 Q1016
SULS 251730Z 2518/2618 36010KT CAVOK TX24/2618Z TN13/2610Z 
     PROB40 
     TEMPO 2518/2600 36015G25KT 
     PROB30 
     TEMPO 2608/2613 3000 BR NSC
       
SURV 251730Z 2518/2618 02012KT CAVOK TX25/2618Z TN13/2610Z 
     PROB30 
     TEMPO 2518/2600 02015G25KT 
     PROB30 
     TEMPO 2608/2613 3000 BR NSC
       
SUSO 251900Z 04012KT CAVOK 26/16 Q1014
SUSO 251730Z 2518/2618 02015KT CAVOK TX26/2618Z TN14/2610Z 
     PROB40 
     TEMPO 2518/2600 02015G25KT